createdAt,value
2023-12-22T00:02:22.126Z,1.67
2023-12-22T00:06:25.480Z,1.50
2023-12-22T00:10:28.846Z,2.50
2023-12-22T00:14:32.157Z,2.10
2023-12-22T00:18:36.766Z,2.30
2023-12-22T00:22:40.046Z,2.27
2023-12-22T00:26:43.301Z,3.60
2023-12-22T00:30:46.939Z,3.23
2023-12-22T00:34:51.641Z,2.50
2023-12-22T00:38:54.870Z,2.43
2023-12-22T00:42:58.164Z,2.70
2023-12-22T00:47:01.509Z,3.23
2023-12-22T00:51:08.001Z,2.10
2023-12-22T00:55:11.642Z,8.10
2023-12-22T00:59:14.945Z,2.07
2023-12-22T01:03:18.172Z,1.50
2023-12-22T01:07:22.854Z,1.60
2023-12-22T01:11:26.145Z,1.80
2023-12-22T01:15:29.441Z,1.80
2023-12-22T01:19:32.684Z,2.13
2023-12-22T01:23:37.343Z,1.70
2023-12-22T01:27:40.572Z,1.87
2023-12-22T01:31:43.872Z,1.90
2023-12-22T01:35:47.259Z,1.97
2023-12-22T01:39:51.882Z,1.93
2023-12-22T01:43:55.211Z,2.03
2023-12-22T01:47:58.822Z,2.50
2023-12-22T01:52:02.152Z,2.40
2023-12-22T01:56:07.901Z,2.47
2023-12-22T02:00:12.143Z,2.17
2023-12-22T02:04:17.530Z,1.77
2023-12-22T02:08:22.520Z,2.13
2023-12-22T02:12:27.147Z,1.90
2023-12-22T02:16:38.267Z,1.60
2023-12-22T02:20:41.985Z,1.40
2023-12-22T02:24:46.610Z,1.50
2023-12-22T02:28:50.872Z,1.60
2023-12-22T02:32:57.252Z,1.30
2023-12-22T02:37:01.401Z,1.30
2023-12-22T02:41:07.113Z,1.40
2023-12-22T02:45:16.309Z,1.40
2023-12-22T02:49:19.903Z,2.10
2023-12-22T02:53:24.703Z,1.97
2023-12-22T02:57:29.376Z,2.50
2023-12-22T03:01:32.782Z,2.80
2023-12-22T03:05:36.083Z,2.47
2023-12-22T03:09:39.571Z,2.33
2023-12-22T03:13:44.213Z,2.30
2023-12-22T03:17:47.727Z,2.07
2023-12-22T03:21:51.349Z,2.20
2023-12-22T03:25:54.590Z,2.00
2023-12-22T03:29:59.263Z,2.00
2023-12-22T03:34:02.526Z,1.97
2023-12-22T03:38:06.045Z,2.53
2023-12-22T03:42:09.309Z,2.33
2023-12-22T03:46:13.978Z,2.13
2023-12-22T03:50:17.313Z,2.10
2023-12-22T03:54:20.654Z,2.10
2023-12-22T03:58:24.082Z,1.90
2023-12-22T04:02:28.695Z,2.20
2023-12-22T04:06:31.965Z,1.90
2023-12-22T04:10:35.281Z,2.00
2023-12-22T04:14:38.586Z,1.77
2023-12-22T04:18:43.958Z,1.67
2023-12-22T04:22:47.299Z,1.70
2023-12-22T04:26:50.557Z,1.73
2023-12-22T04:30:53.848Z,1.73
2023-12-22T04:34:58.540Z,2.60
2023-12-22T04:39:01.864Z,3.30
2023-12-22T04:43:05.394Z,1.97
2023-12-22T04:47:08.678Z,1.70
2023-12-22T04:51:13.343Z,1.60
2023-12-22T04:55:16.907Z,1.83
2023-12-22T04:59:20.152Z,1.93
2023-12-22T05:03:23.408Z,1.90
2023-12-22T05:07:28.909Z,1.90
2023-12-22T05:11:33.480Z,2.00
2023-12-22T05:15:37.768Z,2.23
2023-12-22T05:19:41.026Z,2.20
2023-12-22T05:23:45.692Z,2.27
2023-12-22T05:27:49.215Z,1.97
2023-12-22T05:31:52.602Z,1.93
2023-12-22T05:35:55.935Z,2.03
2023-12-22T05:40:00.584Z,2.20
2023-12-22T05:44:03.896Z,2.17
2023-12-22T05:48:08.739Z,1.90
2023-12-22T05:52:12.140Z,2.60
2023-12-22T05:56:23.202Z,2.30
2023-12-22T06:00:27.498Z,2.47
2023-12-22T06:04:30.967Z,2.33
2023-12-22T06:08:34.234Z,2.37
2023-12-22T06:12:41.190Z,2.17
2023-12-22T06:16:44.759Z,2.00
2023-12-22T06:20:48.744Z,2.20
2023-12-22T06:24:55.553Z,2.13
2023-12-22T06:29:01.956Z,2.03
2023-12-22T06:33:13.768Z,2.47
2023-12-22T06:37:17.971Z,1.90
2023-12-22T06:41:28.028Z,2.60
2023-12-22T06:45:33.388Z,2.60
2023-12-22T06:49:36.754Z,1.80
2023-12-22T06:53:40.347Z,2.23
2023-12-22T06:57:44.994Z,2.23
2023-12-22T07:01:58.879Z,1.83
2023-12-22T07:06:10.263Z,2.33
2023-12-22T07:10:13.928Z,2.07
2023-12-22T07:14:17.482Z,1.97
2023-12-22T07:18:22.173Z,2.83
2023-12-22T07:22:25.486Z,2.40
2023-12-22T07:26:28.810Z,1.50
2023-12-22T07:30:32.050Z,1.60
2023-12-22T07:34:38.875Z,1.60
2023-12-22T07:38:42.683Z,1.83
2023-12-22T07:42:46.000Z,1.73
2023-12-22T07:46:58.774Z,3.13
2023-12-22T07:51:03.617Z,2.30
2023-12-22T07:55:08.581Z,2.47
2023-12-22T07:59:22.596Z,2.30
2023-12-22T08:03:33.362Z,2.40
2023-12-22T08:07:39.299Z,2.00
2023-12-22T08:11:42.675Z,2.87
2023-12-22T08:15:46.190Z,3.10
2023-12-22T08:19:50.156Z,2.87
2023-12-22T08:23:56.541Z,3.10
2023-12-22T08:27:59.976Z,2.40
2023-12-22T08:32:03.946Z,2.67
2023-12-22T08:36:07.775Z,2.10
2023-12-22T08:40:13.127Z,2.63
2023-12-22T08:44:16.736Z,2.33
2023-12-22T08:48:20.086Z,3.20
2023-12-22T08:52:23.381Z,3.33
2023-12-22T08:56:28.700Z,2.80
2023-12-22T09:00:31.960Z,2.47
2023-12-22T09:04:35.518Z,2.67
2023-12-22T09:08:38.777Z,2.60
2023-12-22T09:12:43.646Z,2.53
2023-12-22T09:16:47.311Z,2.20
2023-12-22T09:20:50.678Z,1.80
2023-12-22T09:24:54.097Z,2.33
2023-12-22T09:28:59.168Z,2.33
2023-12-22T09:33:02.935Z,2.20
2023-12-22T09:37:06.333Z,2.70
2023-12-22T09:41:09.760Z,4.03
2023-12-22T09:45:15.222Z,2.60
2023-12-22T09:49:21.598Z,2.10
2023-12-22T09:53:26.591Z,2.43
2023-12-22T09:57:32.504Z,2.47
2023-12-22T10:01:38.071Z,2.30
2023-12-22T10:05:42.964Z,2.90
2023-12-22T10:09:49.492Z,2.87
2023-12-22T10:13:54.895Z,3.07
2023-12-22T10:18:00.374Z,3.43
2023-12-22T10:22:03.735Z,2.70
2023-12-22T10:26:07.012Z,2.87
2023-12-22T10:30:11.639Z,3.27
2023-12-22T10:34:16.430Z,3.30
2023-12-22T10:38:21.130Z,4.73
2023-12-22T10:42:24.628Z,4.60
2023-12-22T10:46:28.011Z,4.77
2023-12-22T10:50:32.684Z,6.47
2023-12-22T10:54:38.279Z,6.27
2023-12-22T10:58:41.656Z,5.10
2023-12-22T11:02:45.729Z,4.73
2023-12-22T11:06:52.455Z,3.87
2023-12-22T11:11:01.019Z,5.27
2023-12-22T11:15:08.146Z,5.43
2023-12-22T11:19:13.240Z,5.60
2023-12-22T11:23:19.856Z,4.97
2023-12-22T11:27:23.739Z,4.70
2023-12-22T11:31:29.698Z,5.37
2023-12-22T11:35:34.715Z,9.43
2023-12-22T11:39:40.660Z,11.60
2023-12-22T11:43:45.540Z,10.30
2023-12-22T11:47:49.848Z,8.23
2023-12-22T11:51:53.396Z,7.20
2023-12-22T11:56:02.794Z,6.60
2023-12-22T12:00:09.512Z,11.90
2023-12-22T12:04:12.812Z,6.53
2023-12-22T12:08:16.310Z,6.30
2023-12-22T12:12:25.717Z,9.70
2023-12-22T12:16:30.312Z,8.50
2023-12-22T12:20:34.569Z,6.77
2023-12-22T12:24:39.884Z,5.20
2023-12-22T12:28:48.681Z,4.30
2023-12-22T12:32:52.372Z,4.13
2023-12-22T12:36:56.733Z,3.10
2023-12-22T12:41:00.974Z,2.97
2023-12-22T12:45:07.603Z,3.60
2023-12-22T12:49:12.776Z,5.77
2023-12-22T12:53:16.264Z,4.00
2023-12-22T12:57:19.833Z,4.33
2023-12-22T13:01:29.302Z,3.40
2023-12-22T13:05:38.521Z,4.70
2023-12-22T13:09:44.320Z,5.50
2023-12-22T13:13:47.709Z,4.80
2023-12-22T13:17:52.942Z,3.73
2023-12-22T13:21:56.889Z,3.90
2023-12-22T13:26:03.182Z,3.93
2023-12-22T13:30:07.426Z,4.23
2023-12-22T13:34:13.072Z,6.87
2023-12-22T13:38:16.896Z,8.67
2023-12-22T13:42:22.550Z,6.93
2023-12-22T13:46:30.362Z,9.90
2023-12-22T13:50:37.557Z,10.00
2023-12-22T13:54:41.000Z,7.60
2023-12-22T13:58:47.821Z,7.13
2023-12-22T14:02:51.468Z,5.50
2023-12-22T14:06:56.197Z,4.10
2023-12-22T14:10:59.455Z,3.83
2023-12-22T14:15:02.693Z,3.60
2023-12-22T14:19:06.105Z,3.57
2023-12-22T14:23:14.538Z,3.60
2023-12-22T14:27:19.178Z,6.83
2023-12-22T14:31:22.980Z,4.00
2023-12-22T14:35:26.270Z,3.40
2023-12-22T14:39:32.491Z,5.30
2023-12-22T14:43:35.785Z,4.67
2023-12-22T14:47:39.145Z,5.93
2023-12-22T14:51:42.747Z,6.00
2023-12-22T14:55:47.420Z,5.67
2023-12-22T14:59:50.665Z,4.60
2023-12-22T15:03:53.906Z,4.23
2023-12-22T15:07:57.651Z,5.10
2023-12-22T15:12:02.807Z,4.63
2023-12-22T15:16:07.128Z,4.07
2023-12-22T15:20:12.914Z,4.20
2023-12-22T15:24:17.162Z,5.73
2023-12-22T15:28:21.816Z,6.20
2023-12-22T15:32:25.165Z,6.10
2023-12-22T15:36:29.369Z,3.70
2023-12-22T15:40:32.664Z,4.10
2023-12-22T15:44:41.307Z,3.50
2023-12-22T15:48:46.130Z,3.30
2023-12-22T15:52:49.767Z,3.37
2023-12-22T15:56:53.229Z,3.40
2023-12-22T16:00:57.864Z,3.40
2023-12-22T16:05:01.085Z,4.17
2023-12-22T16:09:05.140Z,6.10
2023-12-22T16:13:09.892Z,6.87
2023-12-22T16:17:15.262Z,5.87
2023-12-22T16:21:18.593Z,8.70
2023-12-22T16:25:21.763Z,11.17
2023-12-22T16:29:25.198Z,5.73
2023-12-22T16:33:30.040Z,6.60
2023-12-22T16:37:33.431Z,7.00
2023-12-22T16:41:40.136Z,8.60
2023-12-22T16:45:44.391Z,10.00
2023-12-22T16:49:49.323Z,11.87
2023-12-22T16:53:52.605Z,9.83
2023-12-22T16:57:56.620Z,11.03
2023-12-22T17:02:13.937Z,12.93
2023-12-22T17:06:25.012Z,14.50
2023-12-22T17:10:29.211Z,14.90
2023-12-22T17:14:32.803Z,14.40
2023-12-22T17:18:36.067Z,16.90
2023-12-22T17:22:40.913Z,18.27
2023-12-22T17:26:44.155Z,18.00
2023-12-22T17:30:47.329Z,12.50
2023-12-22T17:34:50.576Z,15.63
2023-12-22T17:38:55.201Z,19.50
2023-12-22T17:42:58.472Z,20.57
2023-12-22T17:47:04.894Z,19.50
2023-12-22T19:11:18.801Z,5.17
2023-12-22T19:15:24.223Z,5.03
2023-12-22T22:29:14.803Z,12.90
2023-12-22T22:33:18.735Z,13.43
2023-12-22T22:37:22.028Z,15.73
2023-12-22T22:41:25.912Z,12.77
2023-12-22T22:45:31.266Z,14.03
2023-12-22T22:49:34.545Z,17.87
2023-12-22T22:53:37.808Z,15.77
2023-12-22T22:57:41.294Z,17.13
2023-12-22T23:01:49.088Z,16.07
2023-12-22T23:05:52.351Z,14.80
2023-12-22T23:09:58.384Z,11.63
2023-12-22T23:14:01.761Z,10.30
2023-12-22T23:18:07.188Z,8.30
2023-12-22T23:22:10.514Z,7.60
2023-12-22T23:26:13.929Z,7.70
2023-12-22T23:30:17.215Z,6.13
2023-12-22T23:34:22.192Z,5.17
2023-12-22T23:38:25.510Z,2.57
2023-12-22T23:42:28.788Z,2.93
2023-12-22T23:46:32.123Z,2.53
2023-12-22T23:50:36.822Z,2.30
2023-12-22T23:54:40.083Z,2.10
2023-12-22T23:58:43.388Z,2.30
